Terminal Aerodrome Forecast
Issued by NWS

Current Version | Previous Version | Text Only | Print | Product List | Glossary On
Versions: 1 2 3 4 5 6 7 8 9 10 11 12 13 14 15 16 17
000
FTUS44 KLZK 020500
TAFLLQ
TAF
KLLQ 020532Z 0206/0306 20006KT P6SM SCT150
     FM021400 20010G20KT P6SM SCT015
     FM021900 20012G25KT P6SM BKN025
     FM030300 20010KT P6SM SCT030=

USA.gov is the U.S. government's official web portal to all federal, state and local government web resources and services.